sensor_id;sensor_type;location;lat;lon;timestamp;pressure;altitude;pressure_sealevel;temperature;humidity
27623;BME280;15041;45.334;5.622;2024-01-15T00:00:40;98591.75;;;6.87;95.00
27623;BME280;15041;45.334;5.622;2024-01-15T00:03:08;98588.50;;;6.84;93.37
27623;BME280;15041;45.334;5.622;2024-01-15T00:05:35;98587.97;;;6.82;92.39
27623;BME280;15041;45.334;5.622;2024-01-15T00:08:03;98593.88;;;6.84;91.74
27623;BME280;15041;45.334;5.622;2024-01-15T00:10:30;98593.88;;;6.84;91.82
27623;BME280;15041;45.334;5.622;2024-01-15T00:12:57;98588.50;;;6.84;92.62
27623;BME280;15041;45.334;5.622;2024-01-15T00:15:24;98593.38;;;6.88;93.61
27623;BME280;15041;45.334;5.622;2024-01-15T00:17:55;98616.94;;;6.85;95.14
27623;BME280;15041;45.334;5.622;2024-01-15T00:20:22;98613.72;;;6.83;94.90
27623;BME280;15041;45.334;5.622;2024-01-15T00:22:50;98612.38;;;6.86;94.91
27623;BME280;15041;45.334;5.622;2024-01-15T00:25:17;98616.16;;;6.85;95.30
27623;BME280;15041;45.334;5.622;2024-01-15T00:27:44;98614.53;;;6.84;96.35
27623;BME280;15041;45.334;5.622;2024-01-15T00:30:12;98599.22;;;6.84;96.06
27623;BME280;15041;45.334;5.622;2024-01-15T00:32:40;98598.94;;;6.81;95.05
27623;BME280;15041;45.334;5.622;2024-01-15T00:35:09;98599.47;;;6.83;95.54
27623;BME280;15041;45.334;5.622;2024-01-15T00:37:36;98592.25;;;6.83;96.74
27623;BME280;15041;45.334;5.622;2024-01-15T00:40:04;98606.47;;;6.84;97.21
27623;BME280;15041;45.334;5.622;2024-01-15T00:42:33;98626.03;;;6.84;96.25
27623;BME280;15041;45.334;5.622;2024-01-15T00:45:01;98624.44;;;6.83;95.05
27623;BME280;15041;45.334;5.622;2024-01-15T00:47:28;98619.06;;;6.83;94.27
27623;BME280;15041;45.334;5.622;2024-01-15T00:49:55;98605.66;;;6.83;95.46
27623;BME280;15041;45.334;5.622;2024-01-15T00:52:24;98605.66;;;6.83;95.81
27623;BME280;15041;45.334;5.622;2024-01-15T00:54:51;98593.88;;;6.84;93.82
27623;BME280;15041;45.334;5.622;2024-01-15T00:57:18;98588.50;;;6.84;93.32
27623;BME280;15041;45.334;5.622;2024-01-15T00:59:47;98590.13;;;6.85;93.99
27623;BME280;15041;45.334;5.622;2024-01-15T01:02:15;98582.91;;;6.86;94.00
27623;BME280;15041;45.334;5.622;2024-01-15T01:04:42;98584.75;;;6.85;93.73
27623;BME280;15041;45.334;5.622;2024-01-15T01:07:09;98585.31;;;6.88;93.79
27623;BME280;15041;45.334;5.622;2024-01-15T01:09:37;98578.66;;;6.90;94.70
27623;BME280;15041;45.334;5.622;2024-01-15T01:12:05;98579.72;;;6.89;95.18
27623;BME280;15041;45.334;5.622;2024-01-15T01:14:32;98578.91;;;6.88;94.92
27623;BME280;15041;45.334;5.622;2024-01-15T01:16:59;98570.59;;;6.90;94.36
27623;BME280;15041;45.334;5.622;2024-01-15T01:19:27;98566.56;;;6.88;94.20
27623;BME280;15041;45.334;5.622;2024-01-15T01:21:54;98570.59;;;6.90;93.62
27623;BME280;15041;45.334;5.622;2024-01-15T01:24:21;98567.34;;;6.88;91.51
27623;BME280;15041;45.334;5.622;2024-01-15T01:26:51;98564.41;;;6.89;91.31
27623;BME280;15041;45.334;5.622;2024-01-15T01:29:18;98566.06;;;6.91;91.98
27623;BME280;15041;45.334;5.622;2024-01-15T01:31:45;98578.41;;;6.92;92.66
27623;BME280;15041;45.334;5.622;2024-01-15T01:34:15;98593.66;;;6.91;93.17
27623;BME280;15041;45.334;5.622;2024-01-15T01:36:43;98607.91;;;6.92;93.51
27623;BME280;15041;45.334;5.622;2024-01-15T01:39:10;98613.81;;;6.93;93.52
27623;BME280;15041;45.334;5.622;2024-01-15T01:41:38;98606.84;;;6.93;93.72
27623;BME280;15041;45.334;5.622;2024-01-15T01:44:07;98603.06;;;6.93;94.03
27623;BME280;15041;45.334;5.622;2024-01-15T01:46:36;98615.94;;;6.92;93.98
27623;BME280;15041;45.334;5.622;2024-01-15T01:49:06;98607.66;;;6.93;93.94
27623;BME280;15041;45.334;5.622;2024-01-15T01:51:35;98611.13;;;6.93;94.01
27623;BME280;15041;45.334;5.622;2024-01-15T01:54:04;98613.81;;;6.93;94.40
27623;BME280;15041;45.334;5.622;2024-01-15T01:56:32;98597.72;;;6.93;94.79
27623;BME280;15041;45.334;5.622;2024-01-15T01:59:00;98590.25;;;6.96;95.45
27623;BME280;15041;45.334;5.622;2024-01-15T02:01:29;98598.25;;;6.91;95.50
27623;BME280;15041;45.334;5.622;2024-01-15T02:03:57;98596.09;;;6.93;95.49
27623;BME280;15041;45.334;5.622;2024-01-15T02:06:25;98600.97;;;6.96;96.57
27623;BME280;15041;45.334;5.622;2024-01-15T02:08:53;98596.41;;;6.96;96.59
27623;BME280;15041;45.334;5.622;2024-01-15T02:11:20;98596.69;;;6.95;97.11
27623;BME280;15041;45.334;5.622;2024-01-15T02:13:48;98600.97;;;6.96;97.51
27623;BME280;15041;45.334;5.622;2024-01-15T02:16:15;98587.00;;;6.93;97.52
27623;BME280;15041;45.334;5.622;2024-01-15T02:18:46;98588.63;;;6.95;97.47
27623;BME280;15041;45.334;5.622;2024-01-15T02:21:13;98586.19;;;6.93;96.62
27623;BME280;15041;45.334;5.622;2024-01-15T02:23:42;98597.72;;;6.93;96.35
27623;BME280;15041;45.334;5.622;2024-01-15T02:26:10;98590.25;;;6.96;96.55
27623;BME280;15041;45.334;5.622;2024-01-15T02:28:38;98586.50;;;6.97;96.25
27623;BME280;15041;45.334;5.622;2024-01-15T02:31:07;98579.50;;;6.96;96.03
27623;BME280;15041;45.334;5.622;2024-01-15T02:33:34;98584.88;;;6.96;96.19
27623;BME280;15041;45.334;5.622;2024-01-15T02:36:02;98588.09;;;6.97;96.64
27623;BME280;15041;45.334;5.622;2024-01-15T02:38:29;98579.25;;;6.97;96.54
27623;BME280;15041;45.334;5.622;2024-01-15T02:40:59;98574.94;;;6.96;97.71
27623;BME280;15041;45.334;5.622;2024-01-15T02:43:26;98574.16;;;6.96;97.27
27623;BME280;15041;45.334;5.622;2024-01-15T02:45:53;98580.31;;;6.96;96.34
27623;BME280;15041;45.334;5.622;2024-01-15T02:48:20;98568.78;;;6.96;95.56
27623;BME280;15041;45.334;5.622;2024-01-15T02:50:47;98565.03;;;6.97;95.51
27623;BME280;15041;45.334;5.622;2024-01-15T02:53:14;98565.84;;;6.97;96.08
27623;BME280;15041;45.334;5.622;2024-01-15T02:55:42;98563.41;;;6.96;95.36
27623;BME280;15041;45.334;5.622;2024-01-15T02:58:11;98558.06;;;6.96;95.47
27623;BME280;15041;45.334;5.622;2024-01-15T03:00:38;98566.66;;;6.97;95.91
27623;BME280;15041;45.334;5.622;2024-01-15T03:03:05;98575.75;;;6.97;95.66
27623;BME280;15041;45.334;5.622;2024-01-15T03:05:32;98573.31;;;6.95;95.15
27623;BME280;15041;45.334;5.622;2024-01-15T03:08:00;98579.50;;;6.96;95.10
27623;BME280;15041;45.334;5.622;2024-01-15T03:10:27;98571.47;;;6.96;94.80
27623;BME280;15041;45.334;5.622;2024-01-15T03:12:54;98573.31;;;6.95;95.03
27623;BME280;15041;45.334;5.622;2024-01-15T03:15:23;98563.41;;;6.96;95.49
27623;BME280;15041;45.334;5.622;2024-01-15T03:17:50;98562.34;;;6.97;95.22
27623;BME280;15041;45.334;5.622;2024-01-15T03:20:17;98558.84;;;6.96;94.75
27623;BME280;15041;45.334;5.622;2024-01-15T03:22:45;98563.41;;;6.96;94.68
27623;BME280;15041;45.334;5.622;2024-01-15T03:25:12;98574.16;;;6.96;95.63
27623;BME280;15041;45.334;5.622;2024-01-15T03:27:39;98563.41;;;6.96;95.45
27623;BME280;15041;45.334;5.622;2024-01-15T03:30:07;98560.16;;;6.93;95.50
27623;BME280;15041;45.334;5.622;2024-01-15T03:32:36;98565.53;;;6.93;95.15
27623;BME280;15041;45.334;5.622;2024-01-15T03:35:04;98564.31;;;6.79;94.36
27623;BME280;15041;45.334;5.622;2024-01-15T03:37:32;98568.66;;;6.85;94.33
27623;BME280;15041;45.334;5.622;2024-01-15T03:39:59;98562.81;;;6.88;92.94
27623;BME280;15041;45.334;5.622;2024-01-15T03:42:26;98555.56;;;6.89;92.74
27623;BME280;15041;45.334;5.622;2024-01-15T03:44:53;98556.94;;;6.92;93.10
27623;BME280;15041;45.334;5.622;2024-01-15T03:47:21;98562.31;;;6.92;93.31
27623;BME280;15041;45.334;5.622;2024-01-15T03:49:49;98546.22;;;6.92;93.33
27623;BME280;15041;45.334;5.622;2024-01-15T03:52:16;98558.56;;;6.93;93.25
27623;BME280;15041;45.334;5.622;2024-01-15T03:54:44;98566.84;;;6.91;93.59
27623;BME280;15041;45.334;5.622;2024-01-15T03:57:11;98566.06;;;6.91;94.34
27623;BME280;15041;45.334;5.622;2024-01-15T03:59:40;98560.69;;;6.91;95.60
27623;BME280;15041;45.334;5.622;2024-01-15T04:02:08;98571.41;;;6.91;95.65
27623;BME280;15041;45.334;5.622;2024-01-15T04:04:35;98561.22;;;6.93;95.79
27623;BME280;15041;45.334;5.622;2024-01-15T04:07:04;98552.38;;;6.92;95.79
27623;BME280;15041;45.334;5.622;2024-01-15T04:09:31;98554.81;;;6.93;95.38
27623;BME280;15041;45.334;5.622;2024-01-15T04:11:58;98553.75;;;6.95;95.19
27623;BME280;15041;45.334;5.622;2024-01-15T04:14:25;98547.56;;;6.94;95.68
27623;BME280;15041;45.334;5.622;2024-01-15T04:16:54;98541.38;;;6.93;96.91
27623;BME280;15041;45.334;5.622;2024-01-15T04:19:22;98542.47;;;6.93;97.26
27623;BME280;15041;45.334;5.622;2024-01-15T04:21:49;98547.34;;;6.96;97.23
27623;BME280;15041;45.334;5.622;2024-01-15T04:24:19;98548.41;;;6.95;97.45
27623;BME280;15041;45.334;5.622;2024-01-15T04:26:47;98535.78;;;6.95;96.98
27623;BME280;15041;45.334;5.622;2024-01-15T04:29:14;98547.34;;;6.96;96.82
27623;BME280;15041;45.334;5.622;2024-01-15T04:31:41;98549.75;;;6.97;97.24
27623;BME280;15041;45.334;5.622;2024-01-15T04:34:09;98543.56;;;6.97;97.73
27623;BME280;15041;45.334;5.622;2024-01-15T04:36:39;98532.84;;;6.97;98.13
27623;BME280;15041;45.334;5.622;2024-01-15T04:39:06;98524.81;;;6.97;98.54
27623;BME280;15041;45.334;5.622;2024-01-15T04:41:39;98535.53;;;6.97;98.62
27623;BME280;15041;45.334;5.622;2024-01-15T04:44:06;98534.47;;;6.97;98.80
27623;BME280;15041;45.334;5.622;2024-01-15T04:46:34;98529.09;;;6.97;99.02
27623;BME280;15041;45.334;5.622;2024-01-15T04:49:01;98532.31;;;6.95;99.33
27623;BME280;15041;45.334;5.622;2024-01-15T04:51:28;98537.72;;;7.00;99.96
27623;BME280;15041;45.334;5.622;2024-01-15T04:53:55;98540.41;;;7.00;99.97
27623;BME280;15041;45.334;5.622;2024-01-15T04:56:22;98541.44;;;6.98;100.00
27623;BME280;15041;45.334;5.622;2024-01-15T04:58:52;98544.13;;;6.98;100.00
27623;BME280;15041;45.334;5.622;2024-01-15T05:01:19;98538.75;;;6.98;100.00
27623;BME280;15041;45.334;5.622;2024-01-15T05:03:46;98536.06;;;6.98;100.00
27623;BME280;15041;45.334;5.622;2024-01-15T05:06:13;98536.66;;;7.01;100.00
27623;BME280;15041;45.334;5.622;2024-01-15T05:08:40;98542.25;;;6.99;99.99
27623;BME280;15041;45.334;5.622;2024-01-15T05:11:08;98526.97;;;7.00;98.56
27623;BME280;15041;45.334;5.622;2024-01-15T05:13:35;98524.84;;;7.02;98.19
27623;BME280;15041;45.334;5.622;2024-01-15T05:16:04;98518.41;;;7.03;98.56
27623;BME280;15041;45.334;5.622;2024-01-15T05:18:31;98513.31;;;7.01;99.62
27623;BME280;15041;45.334;5.622;2024-01-15T05:20:59;98520.56;;;7.01;100.00
27623;BME280;15041;45.334;5.622;2024-01-15T05:23:26;98512.50;;;7.01;99.98
27623;BME280;15041;45.334;5.622;2024-01-15T05:25:53;98508.75;;;7.02;100.00
27623;BME280;15041;45.334;5.622;2024-01-15T05:28:20;98515.72;;;7.03;100.00
27623;BME280;15041;45.334;5.622;2024-01-15T05:30:47;98501.28;;;7.04;100.00
27623;BME280;15041;45.334;5.622;2024-01-15T05:33:17;98502.59;;;7.01;100.00
27623;BME280;15041;45.334;5.622;2024-01-15T05:35:45;98502.31;;;7.03;100.00
27623;BME280;15041;45.334;5.622;2024-01-15T05:38:12;98495.91;;;7.04;100.00
27623;BME280;15041;45.334;5.622;2024-01-15T05:40:39;98498.00;;;7.02;100.00
27623;BME280;15041;45.334;5.622;2024-01-15T05:43:07;98501.81;;;7.06;100.00
27623;BME280;15041;45.334;5.622;2024-01-15T05:45:34;98505.31;;;7.06;100.00
27623;BME280;15041;45.334;5.622;2024-01-15T05:48:02;98499.13;;;7.06;100.00
27623;BME280;15041;45.334;5.622;2024-01-15T05:50:31;98505.56;;;7.05;100.00
27623;BME280;15041;45.334;5.622;2024-01-15T05:52:58;98498.06;;;7.07;100.00
27623;BME280;15041;45.334;5.622;2024-01-15T05:55:25;98486.78;;;7.05;100.00
27623;BME280;15041;45.334;5.622;2024-01-15T05:57:52;98488.97;;;7.08;100.00
27623;BME280;15041;45.334;5.622;2024-01-15T06:00:20;98483.03;;;7.06;100.00
27623;BME280;15041;45.334;5.622;2024-01-15T06:02:47;98481.97;;;7.07;100.00
27623;BME280;15041;45.334;5.622;2024-01-15T06:05:21;98473.91;;;7.07;100.00
27623;BME280;15041;45.334;5.622;2024-01-15T06:07:49;98493.75;;;7.06;100.00
27623;BME280;15041;45.334;5.622;2024-01-15T06:10:17;98492.94;;;7.05;100.00
27623;BME280;15041;45.334;5.622;2024-01-15T06:12:44;98490.00;;;7.07;100.00
27623;BME280;15041;45.334;5.622;2024-01-15T06:15:11;98493.75;;;7.06;100.00
27623;BME280;15041;45.334;5.622;2024-01-15T06:17:39;98498.63;;;7.09;100.00
27623;BME280;15041;45.334;5.622;2024-01-15T06:20:10;98506.91;;;7.07;100.00
27623;BME280;15041;45.334;5.622;2024-01-15T06:22:38;98504.00;;;7.09;100.00
27623;BME280;15041;45.334;5.622;2024-01-15T06:25:08;98497.81;;;7.08;100.00
27623;BME280;15041;45.334;5.622;2024-01-15T06:27:35;98501.31;;;7.09;99.61
27623;BME280;15041;45.334;5.622;2024-01-15T06:30:03;98496.72;;;7.09;99.68
27623;BME280;15041;45.334;5.622;2024-01-15T06:32:31;98504.00;;;7.09;99.70
27623;BME280;15041;45.334;5.622;2024-01-15T06:34:59;98507.19;;;7.06;99.33
27623;BME280;15041;45.334;5.622;2024-01-15T06:37:26;98506.09;;;7.07;99.05
27623;BME280;15041;45.334;5.622;2024-01-15T06:39:53;98513.91;;;7.08;99.88
27623;BME280;15041;45.334;5.622;2024-01-15T06:42:23;98510.97;;;7.10;100.00
27623;BME280;15041;45.334;5.622;2024-01-15T06:44:50;98513.66;;;7.10;100.00
27623;BME280;15041;45.334;5.622;2024-01-15T06:47:17;98512.28;;;7.07;100.00
27623;BME280;15041;45.334;5.622;2024-01-15T06:49:44;98514.72;;;7.09;100.00
27623;BME280;15041;45.334;5.622;2024-01-15T06:52:12;98517.94;;;7.11;100.00
27623;BME280;15041;45.334;5.622;2024-01-15T06:54:39;98509.34;;;7.09;100.00
27623;BME280;15041;45.334;5.622;2024-01-15T06:57:06;98516.34;;;7.10;100.00
27623;BME280;15041;45.334;5.622;2024-01-15T06:59:35;98513.09;;;7.08;100.00
27623;BME280;15041;45.334;5.622;2024-01-15T07:02:03;98505.59;;;7.10;100.00
27623;BME280;15041;45.334;5.622;2024-01-15T07:04:30;98505.59;;;7.10;100.00
27623;BME280;15041;45.334;5.622;2024-01-15T07:06:57;98512.56;;;7.11;100.00
27623;BME280;15041;45.334;5.622;2024-01-15T07:09:24;98510.16;;;7.09;100.00
27623;BME280;15041;45.334;5.622;2024-01-15T07:11:52;98523.31;;;7.11;100.00
27623;BME280;15041;45.334;5.622;2024-01-15T07:14:19;98516.09;;;7.11;100.00
27623;BME280;15041;45.334;5.622;2024-01-15T07:16:47;98510.47;;;7.13;100.00
27623;BME280;15041;45.334;5.622;2024-01-15T07:19:15;98515.84;;;7.13;100.00
27623;BME280;15041;45.334;5.622;2024-01-15T07:21:42;98515.84;;;7.13;100.00
27623;BME280;15041;45.334;5.622;2024-01-15T07:24:09;98515.84;;;7.13;100.00
27623;BME280;15041;45.334;5.622;2024-01-15T07:26:37;98524.94;;;7.12;100.00
27623;BME280;15041;45.334;5.622;2024-01-15T07:29:04;98516.34;;;7.10;100.00
27623;BME280;15041;45.334;5.622;2024-01-15T07:31:32;98515.84;;;7.13;100.00
27623;BME280;15041;45.334;5.622;2024-01-15T07:34:01;98515.84;;;7.13;100.00
27623;BME280;15041;45.334;5.622;2024-01-15T07:36:29;98519.84;;;7.10;100.00
27623;BME280;15041;45.334;5.622;2024-01-15T07:38:56;98523.84;;;7.08;100.00
27623;BME280;15041;45.334;5.622;2024-01-15T07:41:23;98521.69;;;7.10;100.00
27623;BME280;15041;45.334;5.622;2024-01-15T07:43:50;98524.38;;;7.10;100.00
27623;BME280;15041;45.334;5.622;2024-01-15T07:46:18;98523.31;;;7.11;100.00
27623;BME280;15041;45.334;5.622;2024-01-15T07:48:45;98533.25;;;6.83;100.00
27623;BME280;15041;45.334;5.622;2024-01-15T07:51:13;98537.88;;;6.61;100.00
27623;BME280;15041;45.334;5.622;2024-01-15T07:53:41;98533.38;;;6.67;100.00
27623;BME280;15041;45.334;5.622;2024-01-15T07:56:08;98533.88;;;6.64;100.00
27623;BME280;15041;45.334;5.622;2024-01-15T07:58:35;98534.66;;;6.64;100.00
27623;BME280;15041;45.334;5.622;2024-01-15T08:01:02;98527.38;;;6.60;100.00
27623;BME280;15041;45.334;5.622;2024-01-15T08:03:30;98525.97;;;6.52;100.00
27623;BME280;15041;45.334;5.622;2024-01-15T08:05:58;98523.13;;;6.37;100.00
27623;BME280;15041;45.334;5.622;2024-01-15T08:08:27;98529.88;;;6.45;100.00
27623;BME280;15041;45.334;5.622;2024-01-15T08:10:54;98525.84;;;6.42;100.00
27623;BME280;15041;45.334;5.622;2024-01-15T08:13:21;98527.16;;;6.40;100.00
27623;BME280;15041;45.334;5.622;2024-01-15T08:15:49;98516.16;;;6.36;100.00
27623;BME280;15041;45.334;5.622;2024-01-15T08:18:17;98525.25;;;6.35;100.00
27623;BME280;15041;45.334;5.622;2024-01-15T08:20:44;98514.81;;;6.39;100.00
27623;BME280;15041;45.334;5.622;2024-01-15T08:23:11;98519.38;;;6.38;100.00
27623;BME280;15041;45.334;5.622;2024-01-15T08:25:40;98518.63;;;6.21;100.00
27623;BME280;15041;45.334;5.622;2024-01-15T08:28:07;98509.75;;;6.42;100.00
27623;BME280;15041;45.334;5.622;2024-01-15T08:30:35;98523.69;;;6.39;100.00
27623;BME280;15041;45.334;5.622;2024-01-15T08:33:02;98517.22;;;6.35;100.00
27623;BME280;15041;45.334;5.622;2024-01-15T08:35:29;98514.44;;;6.30;100.00
27623;BME280;15041;45.334;5.622;2024-01-15T08:37:56;98520.75;;;6.19;100.00
27623;BME280;15041;45.334;5.622;2024-01-15T08:40:24;98525.78;;;6.16;100.00
27623;BME280;15041;45.334;5.622;2024-01-15T08:42:53;98531.78;;;6.01;100.00
27623;BME280;15041;45.334;5.622;2024-01-15T08:45:20;98535.69;;;5.94;100.00
27623;BME280;15041;45.334;5.622;2024-01-15T08:47:47;98527.06;;;6.30;100.00
27623;BME280;15041;45.334;5.622;2024-01-15T08:50:14;98515.66;;;6.39;100.00
27623;BME280;15041;45.334;5.622;2024-01-15T08:52:41;98508.59;;;6.33;100.00
27623;BME280;15041;45.334;5.622;2024-01-15T08:55:09;98513.03;;;6.44;100.00
27623;BME280;15041;45.334;5.622;2024-01-15T08:57:36;98526.38;;;6.39;100.00
27623;BME280;15041;45.334;5.622;2024-01-15T09:00:06;98510.88;;;6.46;100.00
27623;BME280;15041;45.334;5.622;2024-01-15T09:02:35;98507.75;;;6.54;100.00
27623;BME280;15041;45.334;5.622;2024-01-15T09:05:03;98499.66;;;6.49;100.00
27623;BME280;15041;45.334;5.622;2024-01-15T09:07:31;98501.28;;;6.50;100.00
27623;BME280;15041;45.334;5.622;2024-01-15T09:09:58;98496.94;;;6.44;100.00
27623;BME280;15041;45.334;5.622;2024-01-15T09:12:25;98496.31;;;6.37;100.00
27623;BME280;15041;45.334;5.622;2024-01-15T09:14:52;98513.06;;;6.49;100.00
27623;BME280;15041;45.334;5.622;2024-01-15T09:17:21;98509.28;;;6.45;100.00
27623;BME280;15041;45.334;5.622;2024-01-15T09:19:50;98503.81;;;6.35;100.00
27623;BME280;15041;45.334;5.622;2024-01-15T09:22:17;98512.16;;;6.17;100.00
27623;BME280;15041;45.334;5.622;2024-01-15T09:24:44;98506.78;;;6.17;100.00
27623;BME280;15041;45.334;5.622;2024-01-15T09:27:12;98508.09;;;6.36;100.00
27623;BME280;15041;45.334;5.622;2024-01-15T09:29:39;98503.66;;;6.47;100.00
27623;BME280;15041;45.334;5.622;2024-01-15T09:32:07;98512.66;;;6.62;100.00
27623;BME280;15041;45.334;5.622;2024-01-15T09:34:36;98504.34;;;6.59;100.00
27623;BME280;15041;45.334;5.622;2024-01-15T09:37:03;98505.44;;;6.63;100.00
27623;BME280;15041;45.334;5.622;2024-01-15T09:39:31;98510.00;;;6.62;100.00
27623;BME280;15041;45.334;5.622;2024-01-15T09:41:58;98506.84;;;6.70;100.00
27623;BME280;15041;45.334;5.622;2024-01-15T09:44:27;98498.31;;;6.73;100.00
27623;BME280;15041;45.334;5.622;2024-01-15T09:46:55;98500.47;;;6.76;100.00
27623;BME280;15041;45.334;5.622;2024-01-15T09:49:23;98489.44;;;6.73;100.00
27623;BME280;15041;45.334;5.622;2024-01-15T09:51:51;98501.28;;;6.77;100.00
27623;BME280;15041;45.334;5.622;2024-01-15T09:54:19;98497.72;;;6.45;100.00
27623;BME280;15041;45.334;5.622;2024-01-15T09:56:47;98498.03;;;6.22;100.00
27623;BME280;15041;45.334;5.622;2024-01-15T09:59:15;98494.66;;;6.10;100.00
27623;BME280;15041;45.334;5.622;2024-01-15T10:01:43;98473.22;;;6.31;100.00
27623;BME280;15041;45.334;5.622;2024-01-15T10:04:11;98477.72;;;6.52;100.00
27623;BME280;15041;45.334;5.622;2024-01-15T10:06:39;98471.53;;;6.78;100.00
27623;BME280;15041;45.334;5.622;2024-01-15T10:09:12;98481.81;;;6.87;100.00
27623;BME280;15041;45.334;5.622;2024-01-15T10:11:41;98486.81;;;6.78;100.00
27623;BME280;15041;45.334;5.622;2024-01-15T10:14:09;98488.84;;;6.66;100.00
27623;BME280;15041;45.334;5.622;2024-01-15T10:16:38;98494.94;;;6.56;100.00
27623;BME280;15041;45.334;5.622;2024-01-15T10:19:05;98489.16;;;6.69;100.00
27623;BME280;15041;45.334;5.622;2024-01-15T10:21:33;98493.00;;;6.78;100.00
27623;BME280;15041;45.334;5.622;2024-01-15T10:24:02;98497.63;;;6.88;100.00
27623;BME280;15041;45.334;5.622;2024-01-15T10:26:32;98503.75;;;6.83;100.00
27623;BME280;15041;45.334;5.622;2024-01-15T10:29:00;98505.84;;;6.76;100.00
27623;BME280;15041;45.334;5.622;2024-01-15T10:31:27;98503.81;;;6.88;100.00
27623;BME280;15041;45.334;5.622;2024-01-15T10:34:09;98502.81;;;6.95;100.00
27623;BME280;15041;45.334;5.622;2024-01-15T10:36:39;98486.75;;;7.00;100.00
27623;BME280;15041;45.334;5.622;2024-01-15T10:39:07;98478.09;;;6.93;100.00
27623;BME280;15041;45.334;5.622;2024-01-15T10:41:36;98470.63;;;6.95;100.00
27623;BME280;15041;45.334;5.622;2024-01-15T10:44:03;98472.81;;;7.03;100.00
27623;BME280;15041;45.334;5.622;2024-01-15T10:46:31;98477.16;;;7.09;100.00
27623;BME280;15041;45.334;5.622;2024-01-15T10:48:59;98476.47;;;6.92;100.00
27623;BME280;15041;45.334;5.622;2024-01-15T10:51:27;98475.38;;;6.88;100.00
27623;BME280;15041;45.334;5.622;2024-01-15T10:53:55;98470.41;;;7.01;100.00
27623;BME280;15041;45.334;5.622;2024-01-15T10:56:24;98474.22;;;7.10;100.00
27623;BME280;15041;45.334;5.622;2024-01-15T10:58:54;98472.38;;;7.16;100.00
27623;BME280;15041;45.334;5.622;2024-01-15T11:01:21;98472.31;;;7.06;100.00
27623;BME280;15041;45.334;5.622;2024-01-15T11:03:49;98468.09;;;7.20;100.00
27623;BME280;15041;45.334;5.622;2024-01-15T11:06:17;98466.44;;;7.09;100.00
27623;BME280;15041;45.334;5.622;2024-01-15T11:08:46;98463.84;;;7.24;100.00
27623;BME280;15041;45.334;5.622;2024-01-15T11:11:16;98455.28;;;7.27;100.00
27623;BME280;15041;45.334;5.622;2024-01-15T11:13:43;98443.91;;;7.10;100.00
27623;BME280;15041;45.334;5.622;2024-01-15T11:16:18;98432.69;;;7.18;100.00
27623;BME280;15041;45.334;5.622;2024-01-15T11:19:03;98424.88;;;7.11;100.00
27623;BME280;15041;45.334;5.622;2024-01-15T11:21:42;98433.44;;;7.08;100.00
27623;BME280;15041;45.334;5.622;2024-01-15T11:24:09;98435.91;;;7.20;100.00
27623;BME280;15041;45.334;5.622;2024-01-15T11:26:44;98440.97;;;7.11;100.00
27623;BME280;15041;45.334;5.622;2024-01-15T11:29:30;98428.91;;;7.14;100.00
27623;BME280;15041;45.334;5.622;2024-01-15T11:32:12;98409.16;;;7.30;100.00
27623;BME280;15041;45.334;5.622;2024-01-15T11:34:54;98413.47;;;7.36;100.00
27623;BME280;15041;45.334;5.622;2024-01-15T11:37:21;98419.34;;;7.33;100.00
27623;BME280;15041;45.334;5.622;2024-01-15T11:39:51;98446.19;;;7.33;100.00
27623;BME280;15041;45.334;5.622;2024-01-15T11:42:20;98452.88;;;7.30;100.00
27623;BME280;15041;45.334;5.622;2024-01-15T11:44:49;98455.28;;;7.27;100.00
27623;BME280;15041;45.334;5.622;2024-01-15T11:47:50;98460.66;;;7.27;100.00
27623;BME280;15041;45.334;5.622;2024-01-15T11:50:29;98462.34;;;7.38;100.00
27623;BME280;15041;45.334;5.622;2024-01-15T11:53:00;98448.63;;;7.34;100.00
27623;BME280;15041;45.334;5.622;2024-01-15T11:55:30;98456.28;;;7.16;100.00
27623;BME280;15041;45.334;5.622;2024-01-15T11:58:01;98447.84;;;7.34;100.00
27623;BME280;15041;45.334;5.622;2024-01-15T12:00:29;98442.50;;;7.39;100.00
27623;BME280;15041;45.334;5.622;2024-01-15T12:02:58;98431.75;;;7.39;100.00
27623;BME280;15041;45.334;5.622;2024-01-15T12:05:27;98429.59;;;7.36;100.00
27623;BME280;15041;45.334;5.622;2024-01-15T12:07:55;98428.47;;;7.32;100.00
27623;BME280;15041;45.334;5.622;2024-01-15T12:10:23;98427.97;;;7.35;100.00
27623;BME280;15041;45.334;5.622;2024-01-15T12:12:57;98418.28;;;7.29;100.00
27623;BME280;15041;45.334;5.622;2024-01-15T12:15:26;98420.91;;;7.24;100.00
27623;BME280;15041;45.334;5.622;2024-01-15T12:17:55;98431.13;;;7.22;100.00
27623;BME280;15041;45.334;5.622;2024-01-15T12:20:25;98427.94;;;7.30;100.00
27623;BME280;15041;45.334;5.622;2024-01-15T12:22:53;98437.09;;;7.34;100.00
27623;BME280;15041;45.334;5.622;2024-01-15T12:25:21;98433.88;;;7.37;100.00
27623;BME280;15041;45.334;5.622;2024-01-15T12:27:48;98432.88;;;7.48;100.00
27623;BME280;15041;45.334;5.622;2024-01-15T12:30:16;98418.09;;;7.45;100.00
27623;BME280;15041;45.334;5.622;2024-01-15T12:32:44;98421.03;;;7.44;100.00
27623;BME280;15041;45.334;5.622;2024-01-15T12:35:13;98421.03;;;7.39;100.00
27623;BME280;15041;45.334;5.622;2024-01-15T12:37:43;98424.69;;;7.28;100.00
27623;BME280;15041;45.334;5.622;2024-01-15T12:40:19;98413.56;;;7.46;100.00
27623;BME280;15041;45.334;5.622;2024-01-15T12:42:46;98414.34;;;7.46;100.00
27623;BME280;15041;45.334;5.622;2024-01-15T12:45:14;98418.94;;;7.46;100.00
27623;BME280;15041;45.334;5.622;2024-01-15T12:47:41;98410.81;;;7.41;100.00
27623;BME280;15041;45.334;5.622;2024-01-15T12:50:09;98409.22;;;7.40;100.00
27623;BME280;15041;45.334;5.622;2024-01-15T12:52:39;98406.56;;;7.45;100.00
27623;BME280;15041;45.334;5.622;2024-01-15T12:55:09;98406.31;;;7.51;100.00
27623;BME280;15041;45.334;5.622;2024-01-15T12:57:36;98395.31;;;7.48;100.00
27623;BME280;15041;45.334;5.622;2024-01-15T13:00:05;98405.53;;;7.51;100.00
27623;BME280;15041;45.334;5.622;2024-01-15T13:02:38;98419.75;;;7.51;100.00
27623;BME280;15041;45.334;5.622;2024-01-15T13:05:08;98407.66;;;7.49;100.00
27623;BME280;15041;45.334;5.622;2024-01-15T13:07:39;98410.25;;;7.34;100.00
27623;BME280;15041;45.334;5.622;2024-01-15T13:10:08;98404.94;;;7.44;100.00